Time;durP1;ratioP1;P1;durP2;ratioP2;P2;SDS_P1;SDS_P2;PMS_P1;PMS_P2;Temp;Humidity;BMP_temperature;BMP_pressure;BME280_temperature;BME280_humidity;BME280_pressure;Samples;Min_cycle;Max_cycle;Signal;HPM_P1;HPM_P2
2021/01/24 00:00:24;;;;;;;31.65;22.27;;;6.70;99.90;;;;;;6097365;23;19999;-86
2021/01/24 00:02:50;;;;;;;26.65;20.17;;;6.70;99.90;;;;;;6096716;23;19995;-89
2021/01/24 00:05:16;;;;;;;30.27;21.55;;;6.60;99.90;;;;;;6099305;23;20007;-83
2021/01/24 00:07:42;;;;;;;42.08;27.73;;;6.70;99.90;;;;;;6072139;23;20023;-87
2021/01/24 00:10:09;;;;;;;40.45;26.55;;;6.70;99.90;;;;;;6071768;23;20010;-85
2021/01/24 00:12:38;;;;;;;42.20;28.85;;;6.80;99.90;;;;;;6071866;23;20007;-86
2021/01/24 00:15:04;;;;;;;36.83;24.95;;;6.80;99.90;;;;;;6049572;23;20007;-88
2021/01/24 00:17:30;;;;;;;39.90;26.83;;;6.80;99.90;;;;;;6096377;23;20011;-84
2021/01/24 00:19:56;;;;;;;34.08;24.80;;;6.80;99.90;;;;;;6097029;23;20013;-84
2021/01/24 00:22:21;;;;;;;40.03;27.35;;;6.70;99.90;;;;;;6097390;23;20421;-85
2021/01/24 00:24:47;;;;;;;36.63;25.48;;;6.70;99.90;;;;;;6096745;23;20007;-84
2021/01/24 00:27:53;;;;;;;38.92;27.30;;;6.60;99.90;;;;;;6095841;23;20066;-83
2021/01/24 00:30:20;;;;;;;38.85;26.45;;;6.60;99.90;;;;;;6096465;23;20010;-83
2021/01/24 00:32:45;;;;;;;37.78;24.98;;;6.50;99.90;;;;;;6070369;23;20003;-82
2021/01/24 00:35:32;;;;;;;35.05;24.08;;;6.60;99.90;;;;;;6097376;23;20074;-86
2021/01/24 00:37:59;;;;;;;40.10;26.17;;;6.60;99.90;;;;;;6070799;23;20007;-84
2021/01/24 00:40:27;;;;;;;37.67;25.83;;;6.60;99.90;;;;;;6071272;23;20057;-87
2021/01/24 00:42:53;;;;;;;39.50;26.05;;;6.50;99.90;;;;;;6071111;23;20013;-86
2021/01/24 00:45:19;;;;;;;42.25;27.08;;;6.50;99.90;;;;;;6096448;23;20006;-82
2021/01/24 00:47:44;;;;;;;41.03;27.17;;;6.60;99.90;;;;;;6070343;23;20002;-84
2021/01/24 00:50:11;;;;;;;47.78;30.90;;;6.70;99.90;;;;;;6070294;23;20383;-81
2021/01/24 00:58:43;;;;;;;55.33;32.00;;;6.40;99.90;;;;;;6096866;23;20065;-83
2021/01/24 01:01:09;;;;;;;45.70;29.95;;;6.10;99.90;;;;;;6096318;23;20010;-82
2021/01/24 01:03:35;;;;;;;48.83;32.10;;;6.10;99.90;;;;;;6070364;23;20017;-82
2021/01/24 01:06:01;;;;;;;48.95;31.77;;;6.20;99.90;;;;;;6096839;23;20003;-85
2021/01/24 01:08:26;;;;;;;56.58;33.17;;;6.20;99.90;;;;;;6069770;23;20101;-82
2021/01/24 01:10:58;;;;;;;46.13;30.65;;;6.10;99.90;;;;;;6094517;23;20124;-84
2021/01/24 01:13:24;;;;;;;50.50;31.45;;;6.10;99.90;;;;;;6071558;23;20081;-85
2021/01/24 01:15:50;;;;;;;47.70;31.60;;;6.20;99.90;;;;;;6097713;23;19999;-86
2021/01/24 01:18:15;;;;;;;50.53;32.13;;;6.40;99.90;;;;;;6098130;23;20003;-84
2021/01/24 01:20:41;;;;;;;49.58;32.05;;;6.20;99.90;;;;;;6099777;23;20002;-87
2021/01/24 01:23:09;;;;;;;47.22;31.17;;;6.10;99.90;;;;;;6097781;23;20134;-83
2021/01/24 01:25:35;;;;;;;50.13;31.25;;;6.10;99.90;;;;;;6100496;23;20332;-84
2021/01/24 01:28:01;;;;;;;46.65;31.75;;;6.20;99.90;;;;;;6074250;23;20484;-85
2021/01/24 01:30:27;;;;;;;56.22;33.03;;;6.10;99.90;;;;;;6073197;23;20010;-83
2021/01/24 01:32:53;;;;;;;52.22;32.13;;;6.20;99.90;;;;;;6073787;23;20046;-86
2021/01/24 01:35:19;;;;;;;62.40;35.80;;;6.40;99.90;;;;;;6098369;23;20007;-82
2021/01/24 01:37:44;;;;;;;55.38;34.40;;;6.20;99.90;;;;;;6097635;23;20021;-86
2021/01/24 01:40:11;;;;;;;57.08;32.38;;;6.30;99.90;;;;;;6071591;23;20010;-83
2021/01/24 01:42:37;;;;;;;51.33;33.95;;;6.40;99.90;;;;;;6098081;23;19999;-84
2021/01/24 01:45:05;;;;;;;58.92;33.10;;;6.20;99.90;;;;;;6097512;23;20013;-84
2021/01/24 01:47:31;;;;;;;50.67;32.38;;;6.30;99.90;;;;;;6097958;23;20011;-84
2021/01/24 01:49:58;;;;;;;55.03;34.75;;;6.40;99.90;;;;;;6098552;23;20003;-83
2021/01/24 01:52:28;;;;;;;63.15;33.00;;;6.40;99.90;;;;;;6099007;23;20007;-82
2021/01/24 01:54:55;;;;;;;49.72;29.58;;;6.20;99.90;;;;;;6099131;23;20006;-79
2021/01/24 01:57:22;;;;;;;36.78;24.63;;;6.00;99.90;;;;;;6099129;23;20002;-86
2021/01/24 01:59:49;;;;;;;29.15;19.75;;;6.10;99.90;;;;;;6098600;23;20053;-85
2021/01/24 02:02:48;;;;;;;29.17;20.02;;;6.30;99.90;;;;;;6099015;23;20616;-87
2021/01/24 02:05:59;;;;;;;36.40;24.08;;;6.50;99.90;;;;;;6072561;23;20018;-84
2021/01/24 02:08:46;;;;;;;46.60;27.80;;;6.60;99.90;;;;;;6064234;23;20025;-83
2021/01/24 02:11:23;;;;;;;49.63;30.27;;;6.50;99.90;;;;;;6098854;23;20014;-85
2021/01/24 02:14:07;;;;;;;60.35;31.00;;;5.70;99.90;;;;;;6098342;23;20003;-89
2021/01/24 02:16:38;;;;;;;50.97;29.98;;;5.70;99.90;;;;;;6097559;23;20010;-85
2021/01/24 02:19:08;;;;;;;80.78;33.80;;;5.70;99.90;;;;;;6098457;23;20332;-86
2021/01/24 02:21:41;;;;;;;124.57;39.00;;;5.60;99.90;;;;;;6098810;23;20006;-85
2021/01/24 02:24:12;;;;;;;63.35;31.67;;;5.30;99.90;;;;;;6098197;23;20310;-80
2021/01/24 02:26:53;;;;;;;116.13;38.58;;;5.30;99.90;;;;;;6098285;23;20003;-82
2021/01/24 02:29:21;;;;;;;;;;;5.20;99.90;;;;;;6098131;23;20007;-84
2021/01/24 02:31:49;;;;;;;73.97;31.80;;;5.40;99.90;;;;;;6097739;23;20017;-86
2021/01/24 02:34:17;;;;;;;59.83;30.17;;;5.40;99.90;;;;;;6072983;23;20010;-81
2021/01/24 02:36:44;;;;;;;56.55;30.50;;;5.40;99.90;;;;;;6098039;23;20056;-85
2021/01/24 02:39:12;;;;;;;55.08;29.08;;;5.40;99.90;;;;;;6072082;23;20002;-79
2021/01/24 02:41:39;;;;;;;56.58;29.60;;;5.30;99.90;;;;;;6098226;23;20077;-81
2021/01/24 02:44:08;;;;;;;49.08;28.15;;;5.00;99.90;;;;;;6071952;23;20013;-82
2021/01/24 02:46:36;;;;;;;54.67;28.90;;;5.00;99.90;;;;;;6098094;23;20006;-82
2021/01/24 02:49:03;;;;;;;44.40;28.45;;;5.20;99.90;;;;;;6071806;23;20093;-85
2021/01/24 02:51:29;;;;;;;43.08;25.55;;;5.50;99.90;;;;;;6072046;23;20017;-81
2021/01/24 02:53:55;;;;;;;66.20;27.27;;;5.80;99.90;;;;;;6073870;23;20006;-86
2021/01/24 02:56:22;;;;;;;43.42;24.42;;;5.40;99.90;;;;;;6097764;23;20018;-88
2021/01/24 02:58:52;;;;;;;41.30;23.60;;;5.10;99.90;;;;;;6098467;23;20332;-78
2021/01/24 03:01:17;;;;;;;41.97;23.60;;;5.50;99.90;;;;;;6098202;23;20321;-80
2021/01/24 03:03:43;;;;;;;39.20;22.58;;;5.60;99.90;;;;;;6073030;23;20428;-83
2021/01/24 03:06:11;;;;;;;40.80;20.63;;;5.60;99.90;;;;;;6098691;23;20073;-91
2021/01/24 03:08:38;;;;;;;60.92;23.90;;;5.20;99.90;;;;;;6097424;23;20022;-82
2021/01/24 03:11:08;;;;;;;37.13;20.77;;;4.60;99.90;;;;;;6096747;23;20010;-83
2021/01/24 03:13:43;;;;;;;33.05;20.95;;;4.80;99.90;;;;;;6096617;23;20008;-83
2021/01/24 03:16:13;;;;;;;36.58;21.15;;;5.10;99.90;;;;;;6096587;23;20006;-84
2021/01/24 03:18:43;;;;;;;104.65;26.45;;;5.30;99.90;;;;;;6097023;23;20005;-87
2021/01/24 03:21:10;;;;;;;39.25;21.58;;;5.00;99.90;;;;;;6096631;23;20006;-84
2021/01/24 03:23:38;;;;;;;70.63;23.38;;;5.00;99.90;;;;;;6071826;23;20055;-84
2021/01/24 03:26:05;;;;;;;29.90;19.58;;;4.50;99.90;;;;;;6096370;23;19998;-81
2021/01/24 03:28:32;;;;;;;27.80;16.70;;;4.80;99.90;;;;;;6070893;23;20078;-83
2021/01/24 03:30:58;;;;;;;25.08;16.63;;;5.10;99.90;;;;;;6071729;23;20388;-80
2021/01/24 03:33:24;;;;;;;30.55;18.25;;;4.80;99.90;;;;;;6098513;23;20031;-82
2021/01/24 03:35:50;;;;;;;32.95;18.98;;;4.10;99.90;;;;;;6096929;23;20004;-86
2021/01/24 03:38:16;;;;;;;34.88;20.25;;;4.10;99.90;;;;;;6097232;23;20029;-82
2021/01/24 03:40:42;;;;;;;35.97;19.48;;;4.50;99.90;;;;;;6097880;23;20416;-86
2021/01/24 03:43:08;;;;;;;27.75;18.20;;;4.20;99.90;;;;;;6073812;23;20003;-84
2021/01/24 03:45:33;;;;;;;25.05;18.08;;;4.00;99.90;;;;;;6098673;23;20010;-84
2021/01/24 03:47:59;;;;;;;29.40;16.60;;;4.30;99.90;;;;;;6099880;23;20495;-86
2021/01/24 03:50:25;;;;;;;24.38;16.42;;;4.20;99.90;;;;;;6098142;23;20006;-83
2021/01/24 03:52:50;;;;;;;27.05;17.30;;;4.60;99.90;;;;;;6099464;23;19998;-87
2021/01/24 03:55:16;;;;;;;26.00;16.45;;;4.80;99.90;;;;;;6097904;23;20006;-86
2021/01/24 03:57:42;;;;;;;23.65;15.75;;;4.80;99.90;;;;;;6073630;23;20006;-84
2021/01/24 04:00:10;;;;;;;23.13;16.27;;;5.00;99.90;;;;;;6097878;23;19999;-85
2021/01/24 04:02:36;;;;;;;22.17;16.10;;;4.80;99.90;;;;;;6072981;23;20050;-82
2021/01/24 04:05:02;;;;;;;24.92;17.20;;;5.00;99.90;;;;;;6097076;23;20002;-84
2021/01/24 04:07:27;;;;;;;22.35;15.35;;;4.80;99.90;;;;;;6098342;23;20088;-85
2021/01/24 04:09:54;;;;;;;26.50;17.65;;;4.80;99.90;;;;;;6099330;23;20014;-84
2021/01/24 04:12:20;;;;;;;27.52;17.60;;;4.80;99.90;;;;;;6099105;23;20010;-83
2021/01/24 04:14:45;;;;;;;32.40;18.55;;;4.80;99.90;;;;;;6099737;23;20007;-85
2021/01/24 04:17:11;;;;;;;32.22;21.00;;;4.90;99.90;;;;;;6099031;23;20313;-85
2021/01/24 04:19:37;;;;;;;32.45;20.30;;;5.10;99.90;;;;;;6099498;23;20065;-84
2021/01/24 04:22:03;;;;;;;39.00;20.33;;;4.90;99.90;;;;;;6097927;23;20790;-80
2021/01/24 04:24:29;;;;;;;35.28;21.10;;;4.70;99.90;;;;;;6072781;23;20440;-78
2021/01/24 04:26:55;;;;;;;41.60;21.27;;;4.80;99.90;;;;;;6097814;23;20056;-81
2021/01/24 04:29:21;;;;;;;36.38;21.88;;;4.50;99.90;;;;;;6096459;23;20085;-87
2021/01/24 04:31:47;;;;;;;61.90;24.15;;;4.60;99.90;;;;;;6071097;23;20457;-85
2021/01/24 04:34:13;;;;;;;35.65;21.02;;;4.30;99.90;;;;;;6098938;23;20294;-86
2021/01/24 04:36:39;;;;;;;137.05;23.33;;;3.90;99.90;;;;;;6073008;23;20454;-87
2021/01/24 04:39:05;;;;;;;37.60;21.92;;;3.70;99.90;;;;;;6072896;23;20002;-87
2021/01/24 04:41:36;;;;;;;32.85;20.40;;;4.00;99.90;;;;;;6072502;23;20003;-85
2021/01/24 04:44:06;;;;;;;30.92;20.60;;;4.40;99.90;;;;;;6097761;23;20052;-83
2021/01/24 04:46:33;;;;;;;47.13;22.67;;;4.60;99.90;;;;;;6071502;23;20022;-79
2021/01/24 04:49:00;;;;;;;35.53;22.23;;;4.60;99.90;;;;;;6072106;23;20081;-81
2021/01/24 04:51:26;;;;;;;38.08;22.52;;;4.70;99.90;;;;;;6096771;23;20094;-81
2021/01/24 04:53:52;;;;;;;34.92;22.08;;;4.50;99.90;;;;;;6072058;23;20013;-84
2021/01/24 04:56:18;;;;;;;48.00;22.08;;;4.50;99.90;;;;;;6096666;23;20003;-82
2021/01/24 04:58:45;;;;;;;40.83;21.83;;;4.30;99.90;;;;;;6069955;23;20007;-87
2021/01/24 05:01:13;;;;;;;39.50;21.08;;;4.30;99.90;;;;;;6095340;23;20035;-82
2021/01/24 05:03:39;;;;;;;51.05;21.27;;;4.00;99.90;;;;;;6072133;23;20425;-84
2021/01/24 05:06:05;;;;;;;36.95;19.10;;;3.90;99.90;;;;;;6070342;23;20002;-81
2021/01/24 05:08:31;;;;;;;34.25;20.40;;;3.80;99.90;;;;;;6095675;23;20098;-83
2021/01/24 05:11:07;;;;;;;35.67;18.95;;;4.00;99.90;;;;;;6094053;23;20062;-83
2021/01/24 05:13:33;;;;;;;25.88;17.73;;;4.10;99.90;;;;;;6096786;23;20082;-85
2021/01/24 05:16:00;;;;;;;62.75;20.90;;;4.00;99.90;;;;;;6070284;23;20010;-83
2021/01/24 05:18:26;;;;;;;27.48;18.08;;;4.10;99.90;;;;;;6071093;23;20010;-84
2021/01/24 05:20:53;;;;;;;58.92;19.30;;;4.10;99.90;;;;;;6096655;23;20005;-83
2021/01/24 05:23:21;;;;;;;34.28;18.65;;;4.00;99.90;;;;;;6098266;23;20016;-86
2021/01/24 05:25:47;;;;;;;32.33;20.08;;;3.50;99.90;;;;;;6096921;23;20407;-85
2021/01/24 05:28:19;;;;;;;28.38;20.05;;;3.90;99.90;;;;;;6097650;23;20484;-86
2021/01/24 05:30:44;;;;;;;35.13;19.02;;;4.10;99.90;;;;;;6072446;23;20038;-87
2021/01/24 05:33:11;;;;;;;44.33;19.55;;;4.30;99.90;;;;;;6099364;23;20013;-87
2021/01/24 05:35:48;;;;;;;34.90;20.95;;;4.10;99.90;;;;;;6098883;23;20006;-81
2021/01/24 05:38:28;;;;;;;44.28;20.33;;;4.10;99.90;;;;;;6098965;23;20002;-85
2021/01/24 05:41:00;;;;;;;27.45;19.70;;;4.00;99.90;;;;;;6073356;23;20365;-83
2021/01/24 05:43:27;;;;;;;30.17;20.15;;;4.30;99.90;;;;;;6097013;23;20005;-80
2021/01/24 05:45:53;;;;;;;29.40;20.20;;;4.40;99.90;;;;;;6071760;23;20018;-87
2021/01/24 05:48:19;;;;;;;29.17;19.38;;;4.10;99.90;;;;;;6097350;23;20081;-82
2021/01/24 05:50:46;;;;;;;43.10;19.48;;;3.90;99.90;;;;;;6097482;23;20026;-84
2021/01/24 05:53:13;;;;;;;31.73;17.60;;;3.70;99.90;;;;;;6072636;23;20013;-89
2021/01/24 05:55:39;;;;;;;25.77;17.38;;;3.70;99.90;;;;;;6098177;23;20097;-83
2021/01/24 05:58:24;;;;;;;31.00;17.10;;;3.80;99.90;;;;;;6072651;23;20110;-87
2021/01/24 06:00:52;;;;;;;26.17;17.60;;;3.70;99.90;;;;;;6072589;23;20013;-88
2021/01/24 06:03:19;;;;;;;27.90;17.08;;;4.00;99.90;;;;;;6097957;23;20007;-86
2021/01/24 06:05:45;;;;;;;26.08;16.40;;;4.10;99.90;;;;;;6098565;23;20025;-86
2021/01/24 06:11:06;;;;;;;24.85;17.13;;;3.90;99.90;;;;;;5979805;24;20082;-84
2021/01/24 06:13:33;;;;;;;33.88;18.55;;;4.20;99.90;;;;;;6084101;23;20056;-83
2021/01/24 06:16:13;;;;;;;29.92;18.17;;;4.10;99.90;;;;;;6072605;23;20085;-83
2021/01/24 06:18:52;;;;;;;26.65;18.10;;;4.30;99.90;;;;;;6097664;23;20015;-83
2021/01/24 06:21:24;;;;;;;38.53;19.10;;;4.40;99.90;;;;;;6072425;23;20428;-83
2021/01/24 06:24:17;;;;;;;28.73;18.25;;;4.40;99.90;;;;;;6097718;23;20329;-84
2021/01/24 06:26:48;;;;;;;25.52;16.27;;;4.00;99.90;;;;;;6072641;23;20010;-82
2021/01/24 06:29:17;;;;;;;57.13;19.23;;;4.20;99.90;;;;;;6072528;23;20010;-82
2021/01/24 06:31:47;;;;;;;28.58;18.00;;;4.20;99.90;;;;;;6097238;23;20026;-85
2021/01/24 06:34:13;;;;;;;27.42;17.20;;;3.80;99.90;;;;;;6071999;23;20332;-84
2021/01/24 06:37:08;;;;;;;30.88;19.35;;;4.10;99.90;;;;;;6096938;23;20425;-84
2021/01/24 06:39:55;;;;;;;31.73;18.73;;;4.20;99.90;;;;;;6097439;23;20010;-83
2021/01/24 06:42:42;;;;;;;30.63;17.88;;;4.00;99.90;;;;;;6070969;23;20013;-83
2021/01/24 06:45:26;;;;;;;29.38;19.50;;;3.90;99.90;;;;;;6096748;23;20034;-84
2021/01/24 06:47:54;;;;;;;25.52;18.35;;;4.20;99.90;;;;;;6096957;23;20081;-83
2021/01/24 06:50:40;;;;;;;27.00;17.25;;;4.40;99.90;;;;;;6097256;23;20010;-86
2021/01/24 06:53:12;;;;;;;41.13;20.02;;;4.60;99.90;;;;;;6096769;23;20344;-83
2021/01/24 06:55:51;;;;;;;33.38;18.40;;;4.40;99.90;;;;;;6071078;23;20006;-83
2021/01/24 06:58:31;;;;;;;41.30;19.83;;;3.90;99.90;;;;;;6071309;23;20432;-83
2021/01/24 07:04:25;;;;;;;31.65;19.05;;;3.70;99.90;;;;;;6096371;23;20487;-85
2021/01/24 07:07:12;;;;;;;46.75;20.00;;;4.20;99.90;;;;;;6071398;23;20073;-84
2021/01/24 07:09:42;;;;;;;25.90;17.55;;;4.00;99.90;;;;;;6071321;23;20038;-82
2021/01/24 07:12:09;;;;;;;32.85;19.73;;;4.10;99.90;;;;;;6071523;23;20010;-83
2021/01/24 07:14:34;;;;;;;29.92;18.70;;;4.40;99.90;;;;;;6096724;23;20139;-85
2021/01/24 07:17:09;;;;;;;30.45;18.13;;;4.70;99.90;;;;;;6096419;23;20449;-86
2021/01/24 07:19:47;;;;;;;27.77;18.05;;;4.60;99.90;;;;;;6097262;23;19999;-85
2021/01/24 07:22:14;;;;;;;33.97;18.20;;;4.80;99.90;;;;;;6072238;23;20006;-83
2021/01/24 07:24:43;;;;;;;27.60;17.30;;;4.60;99.90;;;;;;6096923;23;20002;-85
2021/01/24 07:27:11;;;;;;;29.40;17.70;;;4.50;99.90;;;;;;6072210;23;20013;-84
2021/01/24 07:29:38;;;;;;;34.40;20.42;;;4.60;99.90;;;;;;6097044;23;20511;-82
2021/01/24 07:32:15;;;;;;;29.38;19.05;;;4.60;99.90;;;;;;6070857;23;20022;-83
2021/01/24 07:34:43;;;;;;;27.63;18.33;;;4.80;99.90;;;;;;6056289;23;20068;-81
2021/01/24 07:37:10;;;;;;;28.55;18.08;;;5.00;99.90;;;;;;6065287;23;20364;-80
2021/01/24 07:39:58;;;;;;;40.38;19.83;;;5.10;99.90;;;;;;6090496;23;20428;-82
2021/01/24 07:42:23;;;;;;;37.95;19.50;;;5.00;99.90;;;;;;6068265;23;20077;-81
2021/01/24 07:44:49;;;;;;;32.22;19.50;;;5.10;99.90;;;;;;6068494;23;20003;-81
2021/01/24 07:47:15;;;;;;;33.72;19.90;;;5.20;99.90;;;;;;6066460;23;20019;-81
2021/01/24 07:49:42;;;;;;;29.00;20.08;;;5.10;99.90;;;;;;6091585;23;20013;-83
2021/01/24 07:55:29;;;;;;;33.90;20.08;;;4.60;99.90;;;;;;6093572;23;20033;-82
2021/01/24 07:58:16;;;;;;;30.92;20.38;;;5.00;99.90;;;;;;6068088;23;20077;-81
2021/01/24 08:00:46;;;;;;;30.85;19.08;;;5.30;99.90;;;;;;6068988;23;20082;-80
2021/01/24 08:03:18;;;;;;;32.10;20.27;;;5.50;99.90;;;;;;6068720;23;20007;-79
2021/01/24 08:06:05;;;;;;;67.20;25.55;;;5.70;99.90;;;;;;6069239;23;20009;-81
2021/01/24 08:08:31;;;;;;;46.55;25.77;;;5.00;99.90;;;;;;6069216;23;20045;-82
2021/01/24 08:10:57;;;;;;;43.03;25.15;;;4.50;99.90;;;;;;6092078;23;20373;-83
2021/01/24 08:13:23;;;;;;;39.22;23.58;;;4.50;99.90;;;;;;6094804;23;20006;-82
2021/01/24 08:15:53;;;;;;;42.72;23.50;;;4.60;99.90;;;;;;6068396;23;20012;-81
2021/01/24 08:20:47;;;;;;;41.28;23.15;;;5.10;99.90;;;;;;6095885;23;20070;-83
2021/01/24 08:23:14;;;;;;;35.53;23.33;;;5.40;99.90;;;;;;6092145;23;19994;-81
2021/01/24 08:25:41;;;;;;;33.53;20.85;;;5.60;99.90;;;;;;6093498;23;20410;-81
2021/01/24 08:28:10;;;;;;;32.50;20.65;;;5.60;99.90;;;;;;6068594;23;20364;-83
2021/01/24 08:30:40;;;;;;;29.13;19.55;;;5.80;99.90;;;;;;6068813;23;20015;-81
2021/01/24 08:33:11;;;;;;;27.17;19.40;;;6.00;99.90;;;;;;6093209;23;19998;-81
2021/01/24 08:35:43;;;;;;;30.05;18.65;;;6.10;99.90;;;;;;6066480;23;20678;-80
2021/01/24 08:38:09;;;;;;;29.67;19.23;;;6.30;99.90;;;;;;6069399;23;20002;-82
2021/01/24 08:40:36;;;;;;;27.90;18.65;;;6.30;99.90;;;;;;6068749;23;20026;-84
2021/01/24 08:43:04;;;;;;;28.88;19.95;;;6.40;99.90;;;;;;6095826;23;20057;-82
2021/01/24 08:45:33;;;;;;;27.65;20.23;;;6.40;99.90;;;;;;6093159;23;20340;-82
2021/01/24 08:48:09;;;;;;;29.30;20.33;;;6.60;99.90;;;;;;6067825;23;20364;-81
2021/01/24 08:53:10;;;;;;;47.10;28.38;;;7.70;99.90;;;;;;6096353;23;20026;-85
2021/01/24 08:55:50;;;;;;;53.60;32.05;;;8.40;99.90;;;;;;6096088;23;20066;-85
2021/01/24 08:58:33;;;;;;;156.30;77.28;;;9.10;99.90;;;;;;6069395;23;20009;-86
2021/01/24 09:01:07;;;;;;;52.38;34.33;;;8.80;99.90;;;;;;6096895;23;20316;-83
2021/01/24 09:03:33;;;;;;;64.53;40.33;;;8.00;99.90;;;;;;6071537;23;20009;-87
2021/01/24 09:06:18;;;;;;;31.15;23.20;;;8.20;99.90;;;;;;6094764;23;20007;-82
2021/01/24 09:08:48;;;;;;;35.05;22.63;;;7.60;99.90;;;;;;6068018;23;20010;-80
2021/01/24 09:11:17;;;;;;;;;;;7.70;99.90;;;;;;6092407;23;20017;-84
2021/01/24 09:13:45;;;;;;;35.10;21.67;;;8.10;99.90;;;;;;6068752;23;19901;-84
2021/01/24 09:16:55;;;;;;;30.33;21.45;;;8.10;99.90;;;;;;6094252;23;20013;-85
2021/01/24 09:19:24;;;;;;;35.80;23.20;;;8.40;99.90;;;;;;6067929;23;20504;-82
2021/01/24 09:21:50;;;;;;;33.85;22.38;;;8.00;99.90;;;;;;6067458;23;20061;-86
2021/01/24 09:24:40;;;;;;;31.35;23.08;;;8.20;99.90;;;;;;6092652;23;20002;-84
2021/01/24 09:27:10;;;;;;;29.48;20.60;;;8.10;99.90;;;;;;6069767;23;20336;-87
2021/01/24 09:29:41;;;;;;;31.73;22.25;;;8.10;99.90;;;;;;6069127;23;20014;-86
2021/01/24 09:32:08;;;;;;;29.70;20.88;;;8.40;99.90;;;;;;6069297;23;20003;-83
2021/01/24 09:34:47;;;;;;;28.27;20.83;;;8.40;99.90;;;;;;6065448;23;20013;-84
2021/01/24 09:37:13;;;;;;;26.15;19.02;;;8.20;99.90;;;;;;6094029;23;20329;-82
2021/01/24 09:39:39;;;;;;;29.98;19.67;;;7.90;99.90;;;;;;6095513;23;20721;-82
2021/01/24 09:42:10;;;;;;;25.42;18.60;;;7.70;99.90;;;;;;6093200;23;20658;-85
2021/01/24 09:44:36;;;;;;;26.38;18.13;;;7.70;99.90;;;;;;6066091;23;20014;-83
2021/01/24 09:47:01;;;;;;;23.15;16.63;;;7.90;99.90;;;;;;6092830;23;20073;-81
2021/01/24 09:49:27;;;;;;;22.55;14.77;;;8.00;99.90;;;;;;6071142;23;20011;-82
2021/01/24 09:51:53;;;;;;;20.38;14.15;;;7.80;99.90;;;;;;6066119;23;20025;-81
2021/01/24 09:54:19;;;;;;;19.27;14.07;;;7.60;99.90;;;;;;6063033;23;20007;-83
2021/01/24 09:56:45;;;;;;;19.83;13.65;;;7.90;99.90;;;;;;6064884;23;20485;-83
2021/01/24 09:59:14;;;;;;;24.02;14.07;;;8.30;99.90;;;;;;6060923;23;20428;-84
2021/01/24 10:01:44;;;;;;;19.48;13.88;;;8.70;99.90;;;;;;6065550;23;19999;-85
2021/01/24 10:04:21;;;;;;;19.02;14.13;;;9.00;99.90;;;;;;6064636;23;20026;-81
2021/01/24 10:06:47;;;;;;;24.25;13.55;;;9.10;99.90;;;;;;6064021;23;20003;-82
2021/01/24 10:09:14;;;;;;;19.45;14.25;;;9.30;99.90;;;;;;6061437;23;20045;-81
2021/01/24 10:11:39;;;;;;;19.80;13.07;;;9.50;99.90;;;;;;6066261;23;20097;-83
2021/01/24 10:14:05;;;;;;;34.20;19.52;;;9.30;99.90;;;;;;6061564;23;20098;-81
2021/01/24 10:16:31;;;;;;;87.40;52.10;;;10.00;99.90;;;;;;6062964;23;20141;-80
2021/01/24 10:18:57;;;;;;;70.30;31.60;;;10.20;99.90;;;;;;6063110;23;20010;-81
2021/01/24 10:21:23;;;;;;;27.48;18.70;;;10.00;99.90;;;;;;6060501;23;20010;-81
2021/01/24 10:23:49;;;;;;;25.23;16.25;;;10.30;99.90;;;;;;6063635;23;20006;-83
2021/01/24 10:26:15;;;;;;;19.33;14.25;;;10.60;99.90;;;;;;6063225;23;20026;-81
2021/01/24 10:28:42;;;;;;;19.95;13.68;;;10.20;99.90;;;;;;6063881;23;20015;-82
2021/01/24 10:31:08;;;;;;;18.65;12.98;;;9.90;99.90;;;;;;6064501;23;20019;-82
2021/01/24 10:33:36;;;;;;;19.13;12.98;;;9.50;99.90;;;;;;6061429;23;20054;-85
2021/01/24 10:36:02;;;;;;;19.52;13.63;;;9.50;99.90;;;;;;6067248;23;20421;-84
2021/01/24 10:38:28;;;;;;;18.95;13.27;;;9.20;99.90;;;;;;6067611;23;20002;-82
2021/01/24 10:40:57;;;;;;;20.58;15.05;;;9.20;99.90;;;;;;6065346;23;20451;-84
2021/01/24 10:43:29;;;;;;;19.98;14.40;;;9.30;99.90;;;;;;6067700;23;20039;-83
2021/01/24 10:45:54;;;;;;;22.08;15.68;;;9.30;99.90;;;;;;6067631;23;20006;-83
2021/01/24 10:48:26;;;;;;;25.52;17.15;;;9.30;99.90;;;;;;6067482;23;20183;-81
2021/01/24 10:50:53;;;;;;;36.33;21.67;;;9.40;99.90;;;;;;6067353;23;20094;-80
2021/01/24 10:53:19;;;;;;;41.40;26.30;;;9.40;99.90;;;;;;6095353;23;20034;-81
2021/01/24 10:55:44;;;;;;;47.45;29.38;;;9.40;99.90;;;;;;6096204;23;20013;-82
2021/01/24 10:58:10;;;;;;;46.63;30.85;;;9.40;99.90;;;;;;6070648;23;20049;-83
2021/01/24 11:00:37;;;;;;;52.88;33.22;;;9.60;99.90;;;;;;6096123;23;20011;-83
2021/01/24 11:03:03;;;;;;;60.25;36.75;;;10.00;99.90;;;;;;6096270;23;19998;-86
2021/01/24 11:05:29;;;;;;;52.90;34.00;;;10.40;99.90;;;;;;6072128;23;20093;-85
2021/01/24 11:07:55;;;;;;;116.50;65.28;;;10.60;99.90;;;;;;6097932;23;20002;-86
2021/01/24 11:10:20;;;;;;;99.40;57.42;;;11.30;99.90;;;;;;6072056;23;20022;-82
2021/01/24 11:12:49;;;;;;;147.80;87.15;;;11.80;99.90;;;;;;6097714;23;20010;-84
2021/01/24 11:15:15;;;;;;;203.40;110.82;;;12.80;99.90;;;;;;6072736;23;20013;-83
2021/01/24 11:17:41;;;;;;;148.00;87.40;;;13.20;99.90;;;;;;6095451;23;20014;-83
2021/01/24 11:20:10;;;;;;;72.50;48.53;;;12.50;99.90;;;;;;6095825;23;20033;-80
2021/01/24 11:22:37;;;;;;;66.32;41.90;;;11.00;99.90;;;;;;6095683;23;20432;-82
2021/01/24 11:25:04;;;;;;;58.38;37.22;;;10.90;99.90;;;;;;6095909;23;20365;-82
2021/01/24 11:27:30;;;;;;;57.70;38.40;;;10.90;99.90;;;;;;6095455;23;20006;-82
2021/01/24 11:29:56;;;;;;;54.13;36.47;;;11.20;99.90;;;;;;6096113;23;19998;-80
2021/01/24 11:32:23;;;;;;;53.55;35.55;;;11.30;99.90;;;;;;6069675;23;20070;-83
2021/01/24 11:34:49;;;;;;;52.65;35.65;;;11.50;99.90;;;;;;6070045;23;20371;-82
2021/01/24 11:37:15;;;;;;;52.05;35.47;;;12.30;99.90;;;;;;6069480;23;20428;-83
2021/01/24 11:39:41;;;;;;;51.15;34.90;;;12.80;99.90;;;;;;6069789;23;20439;-82
2021/01/24 11:42:07;;;;;;;51.45;35.10;;;12.90;99.90;;;;;;6094915;23;20085;-84
2021/01/24 11:44:33;;;;;;;48.00;34.03;;;12.60;99.90;;;;;;6096991;23;20472;-83
2021/01/24 11:46:58;;;;;;;53.38;31.77;;;12.30;99.90;;;;;;6071938;23;20101;-87
2021/01/24 11:49:24;;;;;;;52.90;31.38;;;11.60;99.90;;;;;;6063446;23;20013;-84
2021/01/24 11:51:50;;;;;;;47.67;33.13;;;11.50;99.90;;;;;;6067976;23;20015;-81
2021/01/24 11:54:19;;;;;;;45.90;32.20;;;11.30;99.90;;;;;;6068077;23;20030;-81
2021/01/24 11:56:44;;;;;;;43.10;30.70;;;10.90;99.90;;;;;;6094850;23;20013;-82
2021/01/24 11:59:13;;;;;;;43.80;30.25;;;11.00;99.90;;;;;;6070716;23;20006;-84
2021/01/24 12:01:45;;;;;;;43.50;30.10;;;11.00;99.90;;;;;;6070463;23;20014;-84
2021/01/24 12:04:10;;;;;;;48.60;30.73;;;10.90;99.90;;;;;;6070175;23;20010;-88
2021/01/24 12:06:36;;;;;;;43.38;28.85;;;10.70;99.90;;;;;;6095795;23;20065;-84
2021/01/24 12:09:11;;;;;;;40.67;28.05;;;10.80;99.90;;;;;;6072077;23;20336;-86
2021/01/24 12:11:37;;;;;;;43.28;27.88;;;10.80;99.90;;;;;;6069185;23;20093;-84
2021/01/24 12:14:03;;;;;;;43.60;28.98;;;10.80;99.90;;;;;;6068194;23;20349;-83
2021/01/24 12:19:35;;;;;;;45.17;30.05;;;10.70;99.90;;;;;;6095924;23;20049;-83
2021/01/24 12:22:12;;;;;;;44.05;29.63;;;10.60;99.90;;;;;;6070853;23;20010;-86
2021/01/24 12:24:38;;;;;;;51.20;33.03;;;10.60;99.90;;;;;;6070064;23;20034;-85
2021/01/24 12:27:04;;;;;;;54.65;33.15;;;10.30;99.90;;;;;;6069007;23;20005;-86
2021/01/24 12:29:30;;;;;;;49.40;33.22;;;10.20;99.90;;;;;;6094900;23;19998;-82
2021/01/24 12:31:56;;;;;;;50.90;33.53;;;10.30;99.90;;;;;;6094354;23;20034;-85
2021/01/24 12:34:21;;;;;;;51.53;33.80;;;10.30;99.90;;;;;;6094261;23;20008;-84
2021/01/24 12:36:47;;;;;;;52.97;32.45;;;10.30;99.90;;;;;;6089397;23;20089;-83
2021/01/24 12:39:16;;;;;;;52.67;33.03;;;10.50;99.90;;;;;;6070394;23;20003;-85
2021/01/24 12:41:51;;;;;;;58.67;38.15;;;10.60;99.90;;;;;;6071352;23;20002;-85
2021/01/24 12:44:17;;;;;;;60.30;38.38;;;10.50;99.90;;;;;;6095652;23;20101;-87
2021/01/24 12:46:46;;;;;;;61.10;37.55;;;10.50;99.90;;;;;;6071392;23;20034;-85
2021/01/24 12:49:12;;;;;;;58.05;37.97;;;10.40;99.90;;;;;;6070315;23;20168;-80
2021/01/24 12:51:38;;;;;;;53.42;34.28;;;10.40;99.90;;;;;;6096545;23;20081;-86
2021/01/24 12:54:04;;;;;;;60.17;37.75;;;10.40;99.90;;;;;;6093561;23;20061;-84
2021/01/24 12:56:30;;;;;;;55.00;36.88;;;10.50;99.90;;;;;;6067762;23;20003;-83
2021/01/24 12:58:55;;;;;;;54.22;35.85;;;10.60;99.90;;;;;;6067679;23;20026;-84
2021/01/24 13:01:21;;;;;;;57.80;34.50;;;10.70;99.90;;;;;;6093814;23;20006;-82
2021/01/24 13:03:49;;;;;;;98.32;59.45;;;10.80;99.90;;;;;;6067566;23;20018;-85
2021/01/24 13:06:15;;;;;;;105.50;60.17;;;12.20;99.90;;;;;;6069751;23;19999;-81
2021/01/24 13:08:41;;;;;;;61.88;39.38;;;12.40;99.90;;;;;;6093410;23;20126;-82